Hauptseite
METAR-TAF:

METAR-TAF

Flughäfen :

Heeresflugplatz Niederstetten

Niederstetten, Deutschland

Breite: 49-24N, Länge: 009-58E, Höhe: 468 m

Beobachtung

Neuester Wetterbericht von vor 57 Minuten, um 23:20 UTC
Wind 3 kt aus Süd
Temperatur 3°C
Luftfeuchtigkeit 81%
Luftdruck 1002 hPa
Sichtweite 10 km oder mehr
Aufgelockert bewölkt in der Höhe von 5500 ft
Geschlossene Wolkendecke in der Höhe von 15000 ft

METAR: ETHN 122320Z 18003KT 9999 SCT055 OVC150 03/00 Q1002 BLU

Zeit: 01:17 (00:17 UTC)

Prognose

Neuester Wetterbericht von vor 4 Stunden und 31 Minuten, um 19:46 UTC
Gültige Prognose vom 12 um 15 UTC bis 12 um 24 UTC
Wind 7 kt aus Süd
Sichtweite: 2010 m
Durchbrochene Bewölkung in der Höhe von 5000 ft

TAF: ETHN 121946Z 1215/1224 18007KT 9999 NSW BKN050 CANCEL 2010

Wetterbeobachtungen und Prognosen von mehr als 4000 Flughäfen (METAR und TAF Bericht).

Die verfügbaren Stationen werden durch gelbe und rote Markierungen auf der Karte dargestellt.

Führen Sie die Maus auf sie, um den Namen der Station zu sehen.

Darauf klicken, um die Beobachtung von Wetterbeobachtungen und Prognosen zu sehen.

Um die Karte zu ändern : klicken Sie auf den grünen Tasten mit einem schwarzen Kreuz Zum Vergrößern, auf den grünen Button mit einem Gedankenstrich zu verkleinern, oder auf die grünen Pfeile für benachbarte Karten.


METAR-TAF: